Latest Weather Observations for Centre Island

IDD60801

Issued at 9:31 am CST Thursday 5 March 2015 (issued every 30 minutes, with the page automatically refreshed every 10 minutes)

About weather observations | Map of weather stations | Latest weather observations for NT | Other Formats
Station Details ID: 014703 Name: CENTRE ISLAND Lat: -15.74 Lon: 136.82 Height: 12.2 m
Data from the previous 72 hours. | See also: Recent months at Centre Island
Date/Time
CST
Temp
°C
App
Temp
°C
Dew
Point
Rel
Hum
%
Delta-T
°C
Wind Press
QNH
hPa
Press
MSL
hPa
Rain
since 9 am
mm
Dir
 
Spd
km/h
Gust
km/h
Spd
kts
Gust
kts
05/09:30am 30.4 34.8 24.5 70 4.1 SSW 9 11 5 6 1010.1 1010.0 0.0
05/09:00am 29.6 33.0 24.0 72 3.9 SSW 13 19 7 10 1010.2 1010.1 2.0
05/08:30am 29.3 32.2 24.4 75 3.4 SSW 17 20 9 11 1009.8 1009.7 2.0
05/08:00am 28.7 32.1 24.0 76 3.3 SSW 13 19 7 10 1009.6 1009.5 2.0
05/07:30am 28.4 32.1 24.6 80 2.7 SSW 13 17 7 9 1009.3 1009.2 2.0
05/07:00am 27.7 31.9 24.7 84 2.1 S 11 13 6 7 1008.8 1008.7 2.0
05/06:30am 27.4 31.6 24.8 86 1.8 SSW 11 13 6 7 1008.2 1008.1 2.0
05/06:00am 27.4 31.8 24.5 84 2.0 SSW 9 13 5 7 1007.8 1007.7 2.0
05/05:30am 27.4 31.8 24.5 84 2.0 SW 9 11 5 6 1007.4 1007.3 2.0
05/05:00am 27.4 32.0 24.8 86 1.8 SW 9 11 5 6 1007.0 1006.9 2.0
05/04:30am 27.3 32.2 24.7 86 1.8 WNW 7 11 4 6 1007.1 1007.0 2.0
05/04:00am 27.5 31.8 24.3 83 2.2 WSW 9 11 5 6 1007.0 1006.9 2.0
05/03:30am 26.7 31.6 24.4 87 1.6 WNW 6 7 3 4 1006.8 1006.7 2.0
05/03:00am 26.8 31.1 24.3 86 1.7 WNW 9 11 5 6 1007.1 1007.0 2.0
05/02:30am 27.4 32.2 24.5 84 2.0 W 7 9 4 5 1007.5 1007.4 2.0
05/02:00am 27.1 32.2 24.6 86 1.7 WNW 6 7 3 4 1007.8 1007.7 2.0
05/01:30am 27.0 31.1 23.9 83 2.1 NW 9 11 5 6 1008.2 1008.1 2.0
05/01:00am 27.1 31.2 24.0 83 2.1 NW 9 11 5 6 1008.6 1008.5 2.0
05/12:30am 27.2 32.1 24.3 84 2.0 WNW 6 7 3 4 1009.0 1008.9 2.0
05/12:00am 27.9 32.1 24.1 80 2.6 NNW 9 11 5 6 1009.0 1008.9 2.0
 
Date/Time
CST
Temp
°C
App
Temp
°C
Dew
Point
Rel
Hum
%
Delta-T
°C
Wind Press
QNH
hPa
Press
MSL
hPa
Rain
since 9 am
mm
Dir
 
Spd
km/h
Gust
km/h
Spd
kts
Gust
kts
04/11:30pm 28.4 32.5 24.0 77 3.0 N 9 13 5 7 1009.2 1009.1 2.0
04/11:00pm 28.3 32.0 23.9 77 3.0 N 11 17 6 9 1009.1 1009.0 2.0
04/10:30pm 28.7 32.6 23.6 74 3.5 NNE 9 13 5 7 1009.2 1009.1 2.0
04/10:00pm 28.8 32.4 23.7 74 3.5 NNE 11 15 6 8 1009.1 1009.0 2.0
04/09:30pm 28.7 32.6 23.6 74 3.5 NE 9 13 5 7 1008.8 1008.7 2.0
04/09:00pm 28.8 32.5 23.9 75 3.4 NE 11 13 6 7 1008.6 1008.5 2.0
04/08:30pm 28.5 34.1 24.3 78 2.9 NNE 2 7 1 4 1008.1 1008.0 2.0
04/08:00pm 28.5 32.2 23.9 76 3.2 N 11 15 6 8 1007.7 1007.6 2.0
04/07:30pm 29.1 33.1 23.8 73 3.7 NNE 9 13 5 7 1007.6 1007.5 2.0
04/07:00pm 29.0 32.9 23.0 70 4.1 N 7 9 4 5 1007.1 1007.0 2.0
04/06:30pm 29.7 33.9 23.2 68 4.5 N 6 7 3 4 1007.0 1006.9 2.0
04/06:00pm 30.6 35.9 23.0 64 5.2 CALM 0 0 0 0 1007.0 1006.9 2.0
04/05:30pm 30.9 35.1 23.5 64 5.1 WSW 7 9 4 5 1006.8 1006.7 2.0
04/05:00pm 30.3 34.4 23.2 65 4.9 SSW 7 9 4 5 1006.8 1006.7 2.0
04/04:30pm 30.3 34.4 23.2 65 4.9 SSE 7 9 4 5 1006.8 1006.7 2.0
04/04:00pm 30.4 35.1 23.3 66 4.9 S 4 9 2 5 1006.9 1006.8 2.0
04/03:30pm 30.3 35.1 24.2 70 4.3 SE 6 9 3 5 1007.2 1007.1 2.0
04/03:00pm 30.0 33.5 24.2 71 4.0 SSE 13 20 7 11 1007.5 1007.4 2.0
04/02:30pm 30.0 31.2 23.9 70 4.2 SE 24 30 13 16 1008.1 1008.0 2.0
04/02:00pm 29.6 30.5 24.0 72 3.9 SE 26 30 14 16 1008.4 1008.3 2.0
04/01:30pm 29.8 33.3 24.2 72 3.9 E 13 17 7 9 1008.7 1008.6 2.0
04/01:00pm 28.7 31.7 23.4 73 3.6 ESE 13 17 7 9 1009.0 1008.9 2.0
04/12:30pm 27.9 27.3 24.3 81 2.5 SE 35 43 19 23 1009.8 1009.7 2.0
04/12:00pm 28.3 30.9 25.5 85 2.0 SE 22 32 12 17 1010.3 1010.2 2.0
04/11:30am 27.9 31.6 24.5 82 2.4 E 13 17 7 9 1010.2 1010.1 1.8
04/11:00am 28.1 32.5 24.5 81 2.5 ENE 9 13 5 7 1010.1 1010.0 1.8
04/10:30am 27.0 28.8 24.8 88 1.5 NE 24 32 13 17 1010.6 1010.5 1.8
04/10:00am 30.3 33.9 25.6 76 3.3 ESE 17 20 9 11 1010.5 1010.4 0.0
04/09:30am 30.6 35.8 25.7 75 3.5 ESE 9 11 5 6 1009.9 1009.8 0.0
04/09:00am 31.1 36.0 24.7 68 4.5 ESE 7 11 4 6 1010.0 1009.9 0.0
04/08:30am 31.0 35.8 24.1 66 4.8 E 6 9 3 5 1009.8 1009.7 0.0
04/08:00am 30.1 35.9 24.0 70 4.2 CALM 0 0 0 0 1009.3 1009.2 0.0
04/07:30am 29.1 35.3 24.6 76 3.1 CALM 0 6 0 3 1008.8 1008.7 0.0
04/07:00am 28.0 33.1 25.0 84 2.1 NNW 7 9 4 5 1008.4 1008.3 0.0
04/06:30am 27.5 33.4 24.7 85 2.0 WNW 2 6 1 3 1007.8 1007.7 0.0
04/06:00am 27.6 32.7 24.6 84 2.1 WNW 6 6 3 3 1007.9 1007.8 0.0
04/05:30am 27.6 32.6 24.8 85 2.0 NW 7 9 4 5 1007.4 1007.3 0.0
04/05:00am 27.8 32.1 24.2 81 2.5 NNW 9 13 5 7 1007.1 1007.0 0.0
04/04:30am 27.8 32.2 24.4 82 2.4 NW 9 11 5 6 1006.7 1006.6 0.0
04/04:00am 28.0 32.4 24.4 81 2.5 NW 9 11 5 6 1006.9 1006.8 0.0
04/03:30am 28.1 32.3 24.1 79 2.8 NNW 9 11 5 6 1006.8 1006.7 0.0
04/03:00am 28.2 32.8 24.8 82 2.4 NW 9 11 5 6 1007.0 1006.9 0.0
04/02:30am 28.2 33.3 25.0 83 2.2 NNW 7 9 4 5 1006.8 1006.7 0.0
04/02:00am 28.3 33.0 24.9 82 2.4 NW 9 11 5 6 1006.9 1006.8 0.0
04/01:30am 29.0 34.1 25.0 79 2.8 NNE 7 11 4 6 1007.5 1007.4 0.0
04/01:00am 29.2 34.1 24.7 77 3.1 NNE 7 11 4 6 1008.0 1007.9 0.0
04/12:30am 29.7 34.2 25.2 77 3.2 NE 11 15 6 8 1008.7 1008.6 0.0
04/12:00am 29.6 34.2 24.7 75 3.4 NE 9 13 5 7 1008.9 1008.8 0.0
 
Date/Time
CST
Temp
°C
App
Temp
°C
Dew
Point
Rel
Hum
%
Delta-T
°C
Wind Press
QNH
hPa
Press
MSL
hPa
Rain
since 9 am
mm
Dir
 
Spd
km/h
Gust
km/h
Spd
kts
Gust
kts
03/11:30pm 29.6 33.8 24.7 75 3.4 NNE 11 13 6 7 1009.1 1009.0 0.0
03/11:00pm 29.6 33.7 24.5 74 3.6 NNE 11 15 6 8 1008.9 1008.8 0.0
03/10:30pm 29.7 33.6 24.8 75 3.4 NNE 13 17 7 9 1008.8 1008.7 0.0
03/10:00pm 29.8 33.6 24.7 74 3.6 NNE 13 15 7 8 1008.7 1008.6 0.0
03/09:30pm 29.9 33.8 24.8 74 3.6 NE 13 19 7 10 1008.5 1008.4 0.0
03/09:00pm 30.0 33.9 24.9 74 3.6 NE 13 15 7 8 1008.3 1008.2 0.0
03/08:30pm 30.0 33.9 24.9 74 3.6 NNE 13 17 7 9 1008.0 1007.9 0.0
03/08:00pm 30.0 33.4 24.6 73 3.8 NE 15 17 8 9 1007.7 1007.6 0.0
03/07:30pm 30.1 33.9 24.7 73 3.8 NE 13 20 7 11 1007.4 1007.3 0.0
03/07:00pm 30.2 33.7 24.8 73 3.8 NE 15 20 8 11 1007.0 1006.9 0.0
03/06:30pm 30.4 33.6 24.3 70 4.3 NE 15 20 8 11 1006.8 1006.7 0.0
03/06:00pm 31.0 34.9 25.4 72 4.0 NNE 15 20 8 11 1006.5 1006.4 0.0
03/05:30pm 31.2 34.0 24.3 66 4.8 NNE 17 22 9 12 1006.2 1006.1 0.0
03/05:00pm 32.0 34.7 24.8 65 5.1 NNE 19 24 10 13 1005.9 1005.8 0.0
03/04:30pm 32.6 36.0 25.2 65 5.3 NNE 17 24 9 13 1006.1 1006.0 0.0
03/04:00pm 32.5 35.4 25.1 65 5.2 NNE 19 24 10 13 1006.4 1006.3 0.0
03/03:30pm 33.4 36.6 25.6 63 5.6 NNE 19 26 10 14 1006.8 1006.7 0.0
03/03:00pm 32.7 35.2 24.7 62 5.6 NNE 20 26 11 14 1006.7 1006.6 0.0
03/02:30pm 33.3 36.7 25.3 63 5.7 NNE 17 26 9 14 1006.7 1006.6 0.0
03/02:00pm 33.1 36.6 25.4 64 5.5 NE 17 22 9 12 1007.3 1007.2 0.0
03/01:30pm 32.0 35.4 25.3 67 4.8 NNE 17 20 9 11 1007.7 1007.6 0.0
03/01:00pm 31.9 35.3 25.2 67 4.7 NNE 17 22 9 12 1008.0 1007.9 0.0
03/12:30pm 32.1 34.7 24.9 65 5.1 NE 20 26 11 14 1008.3 1008.2 0.0
03/12:00pm 32.8 35.7 25.1 64 5.5 NNE 19 26 10 14 1008.3 1008.2 0.0
03/11:30am 33.1 36.0 25.4 64 5.5 NE 20 28 11 15 1008.8 1008.7 0.0
03/11:00am 32.5 35.3 25.3 66 5.1 NE 20 28 11 15 1008.9 1008.8 0.0
03/10:30am 32.0 34.5 25.3 67 4.8 NE 22 28 12 15 1009.2 1009.1 0.0
03/10:00am 31.7 33.9 25.5 69 4.4 NE 24 32 13 17 1009.2 1009.1 0.0
03/09:30am 31.0 33.0 25.1 71 4.2 NE 24 32 13 17 1008.7 1008.6 0.0
03/09:00am 31.7 33.7 25.8 71 4.2 NE 26 33 14 18 1008.5 1008.4 0.0
03/08:30am 30.9 34.1 25.5 73 3.8 NE 19 26 10 14 1007.9 1007.8 0.0
03/08:00am 30.9 34.4 25.5 73 3.8 ENE 17 20 9 11 1007.5 1007.4 0.0
03/07:30am 29.8 33.2 25.3 77 3.2 ENE 17 20 9 11 1007.2 1007.1 0.0
03/07:00am 29.3 32.6 25.1 78 3.0 ENE 17 22 9 12 1007.1 1007.0 0.0
03/06:30am 29.0 32.1 24.8 78 2.9 ENE 17 20 9 11 1006.8 1006.7 0.0
03/06:00am 29.0 32.4 24.6 77 3.1 ENE 15 22 8 12 1006.7 1006.6 0.0
03/05:30am 29.1 32.1 24.6 76 3.1 ENE 17 20 9 11 1006.5 1006.4 0.0
03/05:00am 29.2 32.1 24.5 76 3.3 ENE 17 20 9 11 1006.2 1006.1 0.0
03/04:30am 29.1 32.0 24.4 76 3.3 ENE 17 20 9 11 1005.9 1005.8 0.0
03/04:00am 29.1 32.8 24.6 76 3.1 ENE 13 17 7 9 1005.7 1005.6 0.0
03/03:30am 29.1 32.5 24.6 76 3.1 ENE 15 19 8 10 1005.5 1005.4 0.0
03/03:00am 29.1 32.1 24.6 76 3.1 ENE 17 22 9 12 1005.5 1005.4 0.0
03/02:30am 29.3 32.4 24.8 77 3.2 ENE 17 20 9 11 1005.7 1005.6 0.0
03/02:00am 29.4 32.1 24.7 76 3.3 ENE 19 22 10 12 1006.1 1006.0 0.0
03/01:30am 29.3 32.4 24.8 77 3.2 ENE 17 20 9 11 1006.5 1006.4 0.0
03/01:00am 29.3 32.2 24.4 75 3.4 NE 17 20 9 11 1006.4 1006.3 0.0
03/12:30am 29.4 31.9 24.5 75 3.4 ENE 19 22 10 12 1006.5 1006.4 0.0
03/12:00am 29.5 31.9 24.6 75 3.4 ENE 20 26 11 14 1006.6 1006.5 0.0
 
Date/Time
CST
Temp
°C
App
Temp
°C
Dew
Point
Rel
Hum
%
Delta-T
°C
Wind Press
QNH
hPa
Press
MSL
hPa
Rain
since 9 am
mm
Dir
 
Spd
km/h
Gust
km/h
Spd
kts
Gust
kts
02/11:30pm 29.7 32.1 25.2 77 3.2 ENE 22 28 12 15 1006.4 1006.3 0.0
02/11:00pm 29.7 32.1 25.2 77 3.2 ENE 22 30 12 16 1006.6 1006.5 0.0
02/10:30pm 29.7 32.5 25.2 77 3.2 ENE 20 26 11 14 1006.5 1006.4 0.0
02/10:00pm 29.7 32.1 25.2 77 3.2 ENE 22 28 12 15 1006.7 1006.6 0.0
02/09:30pm 29.8 32.1 25.1 76 3.3 ENE 22 26 12 14 1006.7 1006.6 0.0
02/09:00pm 29.8 32.0 24.9 75 3.4 ENE 22 26 12 14 1006.4 1006.3 0.0
02/08:30pm 30.0 33.0 25.3 76 3.3 ENE 19 24 10 13 1006.2 1006.1 0.0
02/08:00pm 30.0 32.6 25.5 77 3.2 ENE 22 28 12 15 1005.8 1005.7 0.0
02/07:30pm 30.2 32.1 25.0 73 3.7 ENE 24 30 13 16 1005.6 1005.5 0.0
02/07:00pm 30.4 32.7 25.0 73 3.8 ENE 22 28 12 15 1004.9 1004.8 0.0
02/06:30pm 30.9 32.9 24.5 68 4.5 ENE 22 26 12 14 1004.5 1004.4 0.0
02/06:00pm 31.6 32.8 23.9 63 5.4 ENE 24 32 13 17 1004.1 1004.0 0.0
02/05:30pm 32.0 34.6 24.6 65 5.2 NE 19 24 10 13 1004.1 1004.0 0.0
02/05:00pm 32.1 35.1 25.2 67 4.9 NE 19 22 10 12 1004.1 1004.0 0.0
02/04:30pm 32.5 35.5 25.6 67 4.9 NNE 20 26 11 14 1004.2 1004.1 0.0
02/04:00pm 32.9 36.0 25.7 66 5.1 NE 20 26 11 14 1004.3 1004.2 0.0
02/03:30pm 33.3 36.5 25.6 64 5.5 NNE 19 24 10 13 1004.5 1004.4 0.0
02/03:00pm 33.6 37.2 25.6 63 5.7 NNE 17 24 9 13 1004.5 1004.4 0.0
02/02:30pm 33.0 36.0 25.3 64 5.5 NE 19 26 10 14 1004.8 1004.7 0.0
02/02:00pm 34.1 37.3 25.8 62 5.9 NE 20 28 11 15 1005.1 1005.0 0.0
02/01:30pm 33.1 35.1 24.6 61 6.0 NNE 22 28 12 15 1005.6 1005.5 0.0
02/01:00pm 33.8 36.4 25.5 62 5.9 NNE 22 28 12 15 1005.8 1005.7 0.0
02/12:30pm 33.6 35.9 25.6 63 5.7 NNE 24 32 13 17 1006.3 1006.2 0.0
02/12:00pm 33.3 36.1 25.3 63 5.7 NNE 20 30 11 16 1006.5 1006.4 0.0
02/11:30am 33.3 36.0 25.6 64 5.5 NNE 22 28 12 15 1006.8 1006.7 0.0
02/11:00am 32.9 35.8 25.4 64 5.3 NE 20 28 11 15 1007.0 1006.9 0.0
02/10:30am 32.9 35.7 25.2 64 5.5 NE 20 28 11 15 1007.3 1007.2 0.0
02/10:00am 32.9 35.8 25.4 64 5.3 NE 20 26 11 14 1007.4 1007.3 0.0

Other Formats:

Comma delimited format used in spreadsheet applications
http://www.bom.gov.au/fwo/IDD60801/IDD60801.94248.axf

JavaScript Object Notation format (JSON) in row-major order
http://www.bom.gov.au/fwo/IDD60801/IDD60801.94248.json